Latest Weather Observations for Fingal

IDT60801

Issued at 6:02 pm EST Saturday 27 May 2017 (issued every 30 minutes, with the page automatically refreshed every 10 minutes)

About weather observations | Map of weather stations | Latest weather observations for TAS | Other Formats
Station Details ID: 092012 Name: FINGAL (LEGGE STREET) Lat: -41.64 Lon: 147.97 Height: 237.0 m
Data from the previous 72 hours. | See also: Recent months at Fingal
Date/Time
EST
Temp
°C
App
Temp
°C
Dew
Point
°C
Rel
Hum
%
Delta-T
°C
Wind Press
QNH
hPa
Press
MSL
hPa
Rain since
9am
mm
Dir  Spd
km/h
Gust
km/h
Spd
kts
Gust
kts
27/05:30pm 12.3 10.2 9.7 84 1.3 NNE 11 15 6 8 - - 0.0
27/05:00pm 12.9 10.3 9.5 80 1.8 NNE 13 19 7 10 - - 0.0
27/04:30pm 13.0 10.8 9.4 79 1.9 N 11 17 6 9 - - 0.0
27/04:00pm 13.4 11.3 9.8 79 1.9 NNE 11 15 6 8 - - 0.0
27/03:30pm 13.5 12.3 9.7 78 2.0 N 6 9 3 5 - - 0.0
27/03:00pm 14.0 11.3 9.0 72 2.6 NNW 13 19 7 10 - - 0.0
27/02:30pm 14.4 11.0 9.0 70 2.8 NNW 17 28 9 15 - - 0.0
27/02:00pm 16.0 12.9 8.7 62 3.8 NNW 15 28 8 15 - - 0.0
27/01:30pm 15.6 12.6 9.3 66 3.3 N 15 20 8 11 - - 0.0
27/01:00pm 14.6 12.0 9.4 71 2.7 N 13 17 7 9 - - 0.0
27/12:30pm 14.5 12.7 9.3 71 2.7 N 9 11 5 6 - - 0.0
27/12:00pm 14.2 12.6 8.8 70 2.8 NW 7 17 4 9 - - 0.0
27/11:30am 13.6 11.3 7.6 67 3.0 NNE 9 17 5 9 - - 0.0
27/11:00am 13.4 11.1 7.6 68 2.9 NNE 9 13 5 7 - - 0.0
27/10:30am 13.3 10.9 6.9 65 3.1 N 9 15 5 8 - - 0.0
27/10:00am 13.3 10.8 6.4 63 3.3 N 9 20 5 11 - - 0.0
27/09:30am 12.5 10.6 7.4 71 2.5 SE 7 13 4 7 - - 0.0
27/09:00am 11.9 9.0 8.2 78 1.8 NE 13 20 7 11 - - 0.2
27/08:30am 10.3 8.6 8.4 88 0.9 E 7 15 4 8 - - 0.0
27/08:00am 8.2 6.0 6.2 87 0.9 NE 7 11 4 6 - - 0.0
27/07:30am 7.6 5.5 5.7 88 0.9 ESE 6 9 3 5 - - 0.0
27/07:00am 7.4 4.4 5.9 90 0.7 SE 11 17 6 9 - - 0.0
27/06:30am 7.0 4.6 5.3 89 0.8 E 7 15 4 8 - - 0.0
27/06:00am 5.5 2.4 3.5 87 0.8 NE 9 11 5 6 - - 0.0
27/05:30am 5.8 2.9 4.8 93 0.4 ENE 9 15 5 8 - - 0.0
27/05:00am 3.9 0.3 3.2 95 0.3 ENE 11 19 6 10 - - 0.0
27/04:30am 1.9 -2.0 1.2 95 0.3 ENE 11 19 6 10 - - 0.0
27/04:00am 0.5 -2.8 -0.2 95 0.3 NE 7 11 4 6 - - 0.0
27/03:30am 0.1 -3.1 -0.6 95 0.3 NNW 6 17 3 9 - - 0.0
27/03:00am 0.7 -2.6 0.0 95 0.3 E 7 13 4 7 - - 0.0
27/02:30am 0.6 -2.7 -0.1 95 0.3 SE 7 11 4 6 - - 0.0
27/02:00am 0.5 -1.9 -0.4 94 0.3 NW 2 7 1 4 - - 0.0
27/01:30am 0.0 -3.4 -0.8 94 0.3 SE 7 11 4 6 - - 0.0
27/01:00am 0.5 -2.7 -0.4 94 0.3 NNW 6 9 3 5 - - 0.0
27/12:30am 0.5 -2.9 -0.4 94 0.3 SE 7 11 4 6 - - 0.0
27/12:00am 0.0 -2.1 -1.0 93 0.4 CALM 0 0 0 0 - - 0.0
 
Date/Time
EST
Temp
°C
App
Temp
°C
Dew
Point
°C
Rel
Hum
%
Delta-T
°C
Wind Press
QNH
hPa
Press
MSL
hPa
Rain since
9am
mm
Dir  Spd
km/h
Gust
km/h
Spd
kts
Gust
kts
26/11:30pm 0.4 -1.7 -0.6 93 0.4 CALM 0 0 0 0 - - 0.0
26/11:00pm 0.6 -2.2 -0.5 92 0.4 W 4 11 2 6 - - 0.0
26/10:30pm 1.0 -1.4 -0.1 92 0.4 S 2 6 1 3 - - 0.0
26/10:00pm 1.4 -0.9 0.2 92 0.4 SE 2 7 1 4 - - 0.0
26/09:30pm 2.2 0.4 1.0 92 0.5 CALM 0 4 0 2 - - 0.0
26/09:00pm 2.0 -1.2 0.8 92 0.5 SE 7 11 4 6 - - 0.0
26/08:30pm 2.1 0.2 0.6 90 0.6 CALM 0 0 0 0 - - 0.0
26/08:00pm 2.3 0.4 0.7 89 0.6 CALM 0 0 0 0 - - 0.0
26/07:30pm 2.8 1.0 0.9 87 0.7 CALM 0 0 0 0 - - 0.0
26/07:00pm 3.5 1.7 1.4 86 0.8 CALM 0 0 0 0 - - 0.0
26/06:30pm 4.2 1.3 1.7 84 1.0 SSE 6 9 3 5 - - 0.0
26/06:00pm 5.6 3.7 2.6 81 1.2 SE 2 7 1 4 - - 0.0
26/05:30pm 7.1 5.2 3.0 75 1.7 SW 2 6 1 3 - - 0.0
26/05:00pm 8.2 6.3 2.9 69 2.3 SE 2 7 1 4 - - 0.0
26/04:30pm 11.5 10.0 2.8 55 3.8 CALM 0 0 0 0 - - 0.0
26/04:00pm 13.6 11.3 0.6 41 5.6 NE 2 6 1 3 - - 0.0
26/03:30pm 14.1 11.0 1.1 41 5.7 NW 7 11 4 6 - - 0.0
26/03:00pm 14.0 10.8 0.6 40 5.8 WNW 7 11 4 6 - - 0.0
26/02:30pm 13.5 9.9 0.9 42 5.4 WSW 9 15 5 8 - - 0.0
26/02:00pm 13.2 9.4 1.8 46 5.0 SW 11 22 6 12 - - 0.0
26/01:30pm 13.2 9.3 0.9 43 5.3 SSW 11 19 6 10 - - 0.0
26/01:00pm 13.9 10.2 2.5 46 5.1 W 11 15 6 8 - - 0.0
26/12:30pm 13.5 10.6 2.4 47 4.9 NW 7 13 4 7 - - 0.0
26/12:00pm 13.2 10.5 3.6 52 4.4 N 7 11 4 6 - - 0.0
26/11:30am 12.6 10.0 3.3 53 4.2 NNW 6 11 3 6 - - 0.0
26/11:00am 11.0 8.0 4.0 62 3.2 NNE 9 13 5 7 - - 0.0
26/10:30am 9.9 7.5 5.1 72 2.2 NNE 7 11 4 6 - - 0.0
26/10:00am 8.8 7.6 4.8 76 1.8 CALM 0 7 0 4 - - 0.0
26/09:30am 6.6 4.1 3.9 83 1.2 NE 6 7 3 4 - - 0.0
26/09:00am 5.4 3.7 3.9 90 0.6 N 2 9 1 5 - - -
26/08:30am 3.2 1.6 2.2 93 0.4 CALM 0 0 0 0 - - -
26/08:00am 1.8 -0.5 0.6 92 0.5 SE 2 9 1 5 - - -
26/07:30am 2.2 0.3 0.7 90 0.6 CALM 0 0 0 0 - - -
26/07:00am 3.8 0.9 2.5 91 0.5 SW 7 13 4 7 - - -
26/06:30am 4.2 0.6 3.2 93 0.4 WSW 11 17 6 9 - - -
26/06:00am 2.5 0.3 1.3 92 0.5 SW 2 7 1 4 - - -
26/05:30am 3.5 1.5 2.3 92 0.5 SSW 2 7 1 4 - - -
26/05:00am 3.5 1.5 2.3 92 0.5 WSW 2 6 1 3 - - -
26/04:30am 3.8 1.1 2.6 92 0.5 SSW 6 9 3 5 - - -
26/04:00am 5.4 2.5 4.4 93 0.4 WSW 9 13 5 7 - - -
26/03:30am 3.9 1.6 2.7 92 0.5 WSW 4 7 2 4 - - -
26/03:00am 4.7 2.9 3.5 92 0.5 SW 2 6 1 3 - - 0.0
26/02:30am 5.2 3.5 4.2 93 0.4 S 2 7 1 4 - - -
26/02:00am 5.2 3.9 4.0 92 0.5 CALM 0 6 0 3 - - -
26/01:30am 5.9 4.3 4.5 91 0.6 NE 2 9 1 5 - - -
26/01:00am 6.3 5.1 4.6 89 0.7 CALM 0 0 0 0 - - -
26/12:30am 7.9 6.2 5.9 87 0.9 SSE 4 7 2 4 - - -
26/12:00am 8.7 7.4 6.2 84 1.2 SSW 2 7 1 4 - - -
 
Date/Time
EST
Temp
°C
App
Temp
°C
Dew
Point
°C
Rel
Hum
%
Delta-T
°C
Wind Press
QNH
hPa
Press
MSL
hPa
Rain since
9am
mm
Dir  Spd
km/h
Gust
km/h
Spd
kts
Gust
kts
25/11:30pm 10.0 8.6 7.1 82 1.4 WSW 4 7 2 4 - - -
25/11:00pm 11.5 9.8 7.4 76 2.0 SW 6 9 3 5 - - -
25/10:30pm 12.0 10.0 7.3 73 2.3 S 7 13 4 7 - - -
25/10:00pm 13.1 10.9 7.8 70 2.6 S 9 13 5 7 - - -
25/09:30pm 12.0 10.0 8.5 79 1.8 SSE 9 13 5 7 - - -
25/09:00pm 12.1 11.5 8.8 80 1.7 SSW 2 7 1 4 - - -
25/08:30pm 12.4 11.0 8.7 78 1.9 S 6 9 3 5 - - -
25/08:00pm 12.6 11.0 8.9 78 1.9 NE 7 11 4 6 - - -
25/07:30pm 12.5 10.8 8.4 76 2.1 N 7 13 4 7 - - 0.0
25/07:00pm 12.3 10.4 7.4 72 2.4 NE 7 9 4 5 - - 0.0
25/06:30pm 12.3 10.3 7.2 71 2.5 E 7 9 4 5 - - 0.0
25/06:00pm 12.5 10.4 6.8 68 2.8 SSE 7 9 4 5 - - 0.0
25/05:30pm 12.1 10.6 6.6 69 2.6 ESE 4 7 2 4 - - 0.0
25/05:00pm 13.4 11.6 7.0 65 3.1 NW 6 9 3 5 - - 0.0
25/04:30pm 14.1 12.1 6.9 62 3.5 N 7 11 4 6 - - 0.0
25/04:00pm 15.0 11.0 6.8 58 4.1 NW 17 24 9 13 - - 0.0
25/03:30pm 15.1 11.6 7.4 60 3.9 W 15 24 8 13 - - 0.0
25/03:00pm 15.0 10.5 8.5 65 3.3 NW 22 30 12 16 - - 0.0
25/02:30pm 14.9 13.4 8.4 65 3.3 SSW 6 7 3 4 - - 0.0
25/02:00pm 14.9 13.8 8.6 66 3.2 NW 4 7 2 4 - - 0.0
25/01:30pm 14.2 12.2 8.6 69 2.9 NNW 9 15 5 8 - - 0.0
25/01:00pm 14.7 14.3 8.2 65 3.3 CALM 0 4 0 2 - - 0.0
25/12:30pm 14.6 13.3 7.6 63 3.5 NE 4 9 2 5 - - 0.0
25/12:00pm 13.4 11.6 7.0 65 3.1 NW 6 7 3 4 - - 0.0
25/11:30am 12.4 10.5 6.9 69 2.7 SW 6 9 3 5 - - 0.0
25/11:00am 11.7 10.5 6.6 71 2.4 N 2 9 1 5 - - 0.0
25/10:30am 10.0 8.7 6.2 77 1.8 SW 2 6 1 3 - - 0.0
25/10:00am 9.1 7.5 6.4 83 1.3 WNW 4 6 2 3 - - 0.0
25/09:30am 6.8 4.6 5.1 89 0.8 WSW 6 7 3 4 - - 0.0
25/09:00am 5.3 3.7 4.4 94 0.4 W 2 7 1 4 - - 0.0
25/08:30am 3.9 1.3 3.2 95 0.3 W 6 11 3 6 - - 0.0
25/08:00am 1.8 -0.4 0.9 94 0.3 W 2 9 1 5 - - 0.0
25/07:30am 1.4 -0.9 0.5 94 0.3 S 2 6 1 3 - - 0.0
25/07:00am 1.1 -1.6 0.2 94 0.3 SSW 4 9 2 5 - - 0.0
25/06:30am 0.5 -2.7 -0.4 94 0.3 W 6 9 3 5 - - 0.0
25/06:00am 0.5 -2.7 -0.4 94 0.3 SSE 6 7 3 4 - - 0.0
25/05:30am 0.6 -2.2 -0.3 94 0.3 NNW 4 9 2 5 - - 0.0
25/05:00am 0.6 -1.8 -0.4 93 0.4 E 2 9 1 5 - - 0.0
25/04:30am 0.8 -2.4 -0.2 93 0.4 NNE 6 7 3 4 - - 0.0
25/04:00am 0.7 -2.5 -0.3 93 0.4 S 6 11 3 6 - - 0.0
25/03:30am 0.7 -2.5 -0.3 93 0.4 SSE 6 7 3 4 - - 0.0
25/03:00am 0.9 -1.1 -0.1 93 0.4 CALM 0 0 0 0 - - 0.0
25/02:30am 1.3 -1.8 0.3 93 0.4 SE 6 7 3 4 - - 0.0
25/02:00am 1.6 -1.5 0.4 92 0.5 SE 6 7 3 4 - - 0.0
25/01:30am 2.0 0.1 0.8 92 0.5 CALM 0 2 0 1 - - 0.0
25/01:00am 2.8 1.1 1.6 92 0.5 CALM 0 6 0 3 - - 0.0
25/12:30am 2.6 0.5 1.4 92 0.5 ESE 2 9 1 5 - - 0.0
25/12:00am 2.5 -0.6 1.3 92 0.5 SE 7 11 4 6 - - 0.0
 
Date/Time
EST
Temp
°C
App
Temp
°C
Dew
Point
°C
Rel
Hum
%
Delta-T
°C
Wind Press
QNH
hPa
Press
MSL
hPa
Rain since
9am
mm
Dir  Spd
km/h
Gust
km/h
Spd
kts
Gust
kts
24/11:30pm 2.6 0.8 1.3 91 0.5 CALM 0 0 0 0 - - 0.0
24/11:00pm 2.9 1.2 1.6 91 0.5 CALM 0 0 0 0 - - 0.0
24/10:30pm 2.9 1.1 1.3 89 0.6 CALM 0 0 0 0 - - 0.0
24/10:00pm 3.8 1.8 2.2 89 0.6 SSW 2 6 1 3 - - 0.0
24/09:30pm 3.9 1.5 1.9 87 0.8 E 4 9 2 5 - - 0.0
24/09:00pm 4.9 3.4 2.8 86 0.9 CALM 0 0 0 0 - - 0.0
24/08:30pm 5.6 4.2 3.3 85 1.0 CALM 0 0 0 0 - - 0.0
24/08:00pm 5.6 3.3 2.8 82 1.2 SSE 4 7 2 4 - - 0.0
24/07:30pm 7.4 4.7 3.5 76 1.7 NE 7 11 4 6 - - 0.0
24/07:00pm 9.3 6.6 3.5 67 2.5 SW 7 11 4 6 - - 0.0
24/06:30pm 9.5 6.9 4.1 69 2.4 WSW 7 9 4 5 - - 0.0

Other Formats:

Comma delimited format used in spreadsheet applications
http://www.bom.gov.au/fwo/IDT60801/IDT60801.95974.axf

JavaScript Object Notation format (JSON) in row-major order
http://www.bom.gov.au/fwo/IDT60801/IDT60801.95974.json